Time;durP1;ratioP1;P1;durP2;ratioP2;P2;SDS_P1;SDS_P2;PMS_P1;PMS_P2;Temp;Humidity;BMP_temperature;BMP_pressure;BME280_temperature;BME280_humidity;BME280_pressure;Samples;Min_cycle;Max_cycle;Signal;HPM_P1;HPM_P2
2021/11/14 00:02:25;;;;;;;0.30;0.20;;;;;;;7.49;100.00;100203.69;5028443;28;20469;-50
2021/11/14 00:04:51;;;;;;;0.30;0.20;;;;;;;7.50;100.00;100210.72;5018843;28;20802;-50
2021/11/14 00:07:18;;;;;;;0.30;0.20;;;;;;;7.54;100.00;100208.91;5019735;28;20452;-49
2021/11/14 00:09:45;;;;;;;0.30;0.20;;;;;;;7.51;100.00;100209.81;5025457;28;21020;-49
2021/11/14 00:12:12;;;;;;;0.30;0.20;;;;;;;7.49;100.00;100205.47;5024162;28;20953;-49
2021/11/14 00:14:39;;;;;;;1.83;1.83;;;;;;;7.56;100.00;100207.13;5019132;28;20518;-49
2021/11/14 00:17:05;;;;;;;1.60;1.50;;;;;;;7.65;100.00;100206.94;5018935;28;20448;-50
2021/11/14 00:19:32;;;;;;;0.30;0.20;;;;;;;7.57;100.00;100207.09;5025345;28;20531;-49
2021/11/14 00:21:59;;;;;;;1.40;1.23;;;;;;;7.54;100.00;100201.88;5026072;28;20867;-50
2021/11/14 00:24:26;;;;;;;0.30;0.20;;;;;;;7.58;100.00;100210.59;5013717;28;20488;-49
2021/11/14 00:26:52;;;;;;;0.30;0.20;;;;;;;7.60;100.00;100207.03;5039618;28;20492;-48
2021/11/14 00:29:19;;;;;;;0.87;0.87;;;;;;;7.67;100.00;100213.06;5025286;28;20480;-48
2021/11/14 00:31:46;;;;;;;0.30;0.20;;;;;;;7.60;100.00;100204.38;5025591;28;20537;-48
2021/11/14 00:34:13;;;;;;;0.30;0.20;;;;;;;7.59;100.00;100199.13;5025225;28;20448;-48
2021/11/14 00:36:42;;;;;;;0.30;0.30;;;;;;;7.60;100.00;100208.81;5014880;28;20863;-48
2021/11/14 00:39:13;;;;;;;0.30;0.20;;;;;;;7.46;100.00;100211.69;5024767;28;20459;-48
2021/11/14 00:41:40;;;;;;;0.30;0.20;;;;;;;7.54;100.00;100211.53;5025245;28;20460;-48
2021/11/14 00:44:07;;;;;;;0.30;0.20;;;;;;;7.56;100.00;100220.34;5020803;28;20454;-49
2021/11/14 00:46:34;;;;;;;10.77;2.13;;;;;;;7.59;100.00;100212.34;5024335;28;21025;-48
2021/11/14 00:49:01;;;;;;;2.87;0.80;;;;;;;7.57;100.00;100215.03;5020916;28;20455;-48
2021/11/14 00:51:28;;;;;;;0.30;0.20;;;;;;;7.59;100.00;100223.81;5018363;28;20547;-48
2021/11/14 00:53:58;;;;;;;0.30;0.20;;;;;;;7.59;100.00;100225.56;5023123;28;20476;-48
2021/11/14 00:56:25;;;;;;;0.30;0.20;;;;;;;7.62;100.00;100226.38;5022907;28;20509;-49
2021/11/14 00:58:52;;;;;;;0.40;0.40;;;;;;;7.81;100.00;100237.53;5022381;28;20476;-48
2021/11/14 01:01:20;;;;;;;2.73;2.60;;;;;;;7.87;100.00;100242.69;5028348;28;20521;-48
2021/11/14 01:03:49;;;;;;;0.30;0.30;;;;;;;7.81;100.00;100228.69;5021904;28;20448;-48
2021/11/14 01:06:15;;;;;;;0.30;0.20;;;;;;;7.72;100.00;100235.03;5025220;28;21020;-49
2021/11/14 01:08:42;;;;;;;0.30;0.20;;;;;;;7.73;100.00;100247.38;5022111;28;20456;-50
2021/11/14 01:11:10;;;;;;;11.33;1.23;;;;;;;7.69;100.00;100235.09;5019634;28;20891;-49
2021/11/14 01:13:38;;;;;;;0.30;0.20;;;;;;;7.63;100.00;100237.84;5024502;28;20452;-49
2021/11/14 01:16:09;;;;;;;0.30;0.20;;;;;;;7.61;100.00;100247.56;5028992;28;20605;-49
2021/11/14 01:18:35;;;;;;;0.30;0.20;;;;;;;7.59;100.00;100244.97;5027333;28;20505;-48
2021/11/14 01:21:06;;;;;;;0.30;0.20;;;;;;;7.62;100.00;100242.25;5022113;28;20525;-48
2021/11/14 01:23:33;;;;;;;0.30;0.20;;;;;;;7.57;100.00;100244.13;5022554;28;20575;-48
2021/11/14 01:26:00;;;;;;;0.30;0.20;;;;;;;7.60;100.00;100244.06;5041199;28;20827;-48
2021/11/14 01:28:26;;;;;;;0.30;0.20;;;;;;;7.84;100.00;100249.84;5041770;28;20502;-48
2021/11/14 01:30:57;;;;;;;0.30;0.20;;;;;;;7.51;100.00;100254.78;5031255;28;20545;-49
2021/11/14 01:33:25;;;;;;;0.30;0.20;;;;;;;7.96;100.00;100253.13;5034377;28;20786;-49
2021/11/14 01:35:53;;;;;;;0.30;0.20;;;;;;;7.71;100.00;100250.03;5018972;28;20484;-49
2021/11/14 01:38:22;;;;;;;1.10;1.10;;;;;;;7.76;100.00;100252.59;5028621;28;20447;-48
2021/11/14 01:40:50;;;;;;;0.60;0.60;;;;;;;7.84;100.00;100256.00;5023337;28;20513;-48
2021/11/14 01:43:22;;;;;;;0.67;0.67;;;;;;;7.77;100.00;100251.69;5021702;28;20510;-48
2021/11/14 01:45:49;;;;;;;0.30;0.20;;;;;;;7.79;100.00;100259.59;5025974;28;20453;-48
2021/11/14 01:48:15;;;;;;;0.30;0.20;;;;;;;8.20;100.00;100251.75;5028274;28;20452;-48
2021/11/14 01:50:43;;;;;;;0.30;0.20;;;;;;;8.02;100.00;100258.28;5023995;28;20495;-48
2021/11/14 01:53:11;;;;;;;0.30;0.20;;;;;;;7.92;100.00;100261.13;5021545;28;20863;-49
2021/11/14 01:55:42;;;;;;;3.60;2.73;;;;;;;8.19;100.00;100265.91;5032243;28;20455;-49
2021/11/14 01:58:18;;;;;;;0.43;0.43;;;;;;;8.26;100.00;100266.69;5031519;28;20499;-48
2021/11/14 02:00:53;;;;;;;0.30;0.20;;;;;;;8.56;100.00;100263.44;5026019;28;20468;-49
2021/11/14 02:03:21;;;;;;;0.30;0.20;;;;;;;8.54;100.00;100267.91;5029005;28;20448;-49
2021/11/14 02:05:48;;;;;;;0.30;0.20;;;;;;;8.10;100.00;100262.59;5027667;28;20849;-48
2021/11/14 02:08:16;;;;;;;0.93;0.93;;;;;;;8.41;100.00;100261.09;5021239;28;20455;-49
2021/11/14 02:10:45;;;;;;;0.30;0.20;;;;;;;8.29;100.00;100262.19;5029628;28;20519;-48
2021/11/14 02:13:12;;;;;;;0.30;0.20;;;;;;;8.09;100.00;100259.06;5021263;28;20452;-48
2021/11/14 02:15:40;;;;;;;0.30;0.20;;;;;;;7.93;100.00;100258.44;5021107;28;20958;-49
2021/11/14 02:18:09;;;;;;;0.30;0.20;;;;;;;7.93;100.00;100263.75;5026855;28;20456;-49
2021/11/14 02:20:37;;;;;;;0.30;0.20;;;;;;;7.90;100.00;100255.88;5027240;28;20525;-49
2021/11/14 02:23:06;;;;;;;0.30;0.20;;;;;;;7.87;100.00;100261.22;5021968;28;20957;-48
2021/11/14 02:25:33;;;;;;;0.47;0.47;;;;;;;7.88;100.00;100260.31;5030896;28;20451;-48
2021/11/14 02:28:00;;;;;;;0.50;0.47;;;;;;;7.90;100.00;100266.44;5044066;28;20509;-48
2021/11/14 02:30:27;;;;;;;0.30;0.20;;;;;;;7.81;100.00;100263.09;5020424;28;21031;-49
2021/11/14 02:32:55;;;;;;;0.30;0.20;;;;;;;7.88;100.00;100267.38;5032304;28;20491;-48
2021/11/14 02:35:40;;;;;;;0.30;0.30;;;;;;;7.91;100.00;100267.31;5018878;28;20457;-49
2021/11/14 02:38:07;;;;;;;0.30;0.20;;;;;;;7.89;100.00;100272.66;5025780;28;20505;-49
2021/11/14 02:40:35;;;;;;;0.30;0.20;;;;;;;7.91;100.00;100276.13;5020473;28;20969;-49
2021/11/14 02:43:03;;;;;;;0.43;0.43;;;;;;;7.89;100.00;100280.59;5020225;28;20453;-49
2021/11/14 02:45:30;;;;;;;0.30;0.30;;;;;;;7.89;100.00;100282.34;5033172;28;20508;-49
2021/11/14 02:47:57;;;;;;;0.37;0.33;;;;;;;7.94;100.00;100285.78;5020293;28;20484;-48
2021/11/14 02:50:25;;;;;;;0.30;0.20;;;;;;;7.93;100.00;100279.63;5026102;28;20500;-48
2021/11/14 02:52:52;;;;;;;0.50;0.50;;;;;;;7.86;100.00;100280.66;5026903;28;20501;-48
2021/11/14 02:55:22;;;;;;;0.30;0.20;;;;;;;7.90;100.00;100284.09;5021490;28;20447;-48
2021/11/14 02:57:49;;;;;;;0.30;0.20;;;;;;;7.87;100.00;100292.97;5019581;28;20460;-49
2021/11/14 03:00:21;;;;;;;0.40;0.40;;;;;;;7.88;100.00;100283.25;5022178;28;20468;-48
2021/11/14 03:02:49;;;;;;;0.30;0.20;;;;;;;7.85;100.00;100292.13;5031036;28;20440;-48
2021/11/14 03:05:18;;;;;;;1.80;1.70;;;;;;;7.94;100.00;100288.44;5023038;28;20451;-48
2021/11/14 03:07:49;;;;;;;0.30;0.20;;;;;;;8.08;100.00;100291.69;5020074;28;20498;-48
2021/11/14 03:10:20;;;;;;;0.30;0.20;;;;;;;8.05;100.00;100293.53;5022209;28;20467;-48
2021/11/14 03:13:00;;;;;;;0.30;0.20;;;;;;;8.28;100.00;100294.88;5026984;28;20499;-48
2021/11/14 03:15:30;;;;;;;0.30;0.20;;;;;;;8.15;100.00;100296.00;5016661;28;20456;-48
2021/11/14 03:17:57;;;;;;;0.30;0.20;;;;;;;8.12;100.00;100298.72;5026536;28;20441;-48
2021/11/14 03:20:24;;;;;;;0.33;0.30;;;;;;;8.07;100.00;100289.09;5026275;28;21047;-49
2021/11/14 03:22:51;;;;;;;0.30;0.20;;;;;;;8.28;100.00;100297.50;5021001;28;20513;-48
2021/11/14 03:25:23;;;;;;;0.30;0.20;;;;;;;8.13;100.00;100296.94;5019951;28;20892;-49
2021/11/14 03:27:51;;;;;;;0.30;0.20;;;;;;;8.00;100.00;100291.84;5044869;28;20509;-48
2021/11/14 03:30:19;;;;;;;0.30;0.20;;;;;;;7.97;100.00;100293.69;5019927;28;20500;-49
2021/11/14 03:32:46;;;;;;;0.30;0.20;;;;;;;7.92;100.00;100296.41;5033386;28;20463;-49
2021/11/14 03:35:13;;;;;;;0.30;0.20;;;;;;;7.98;100.00;100306.03;5017296;28;20833;-47
2021/11/14 03:37:40;;;;;;;0.30;0.20;;;;;;;8.03;100.00;100306.81;5022342;28;20448;-47
2021/11/14 03:40:09;;;;;;;0.30;0.20;;;;;;;8.01;100.00;100300.66;5029253;28;20878;-48
2021/11/14 03:42:36;;;;;;;0.30;0.20;;;;;;;8.05;100.00;100301.47;5022423;28;20517;-48
2021/11/14 03:45:05;;;;;;;1.13;1.13;;;;;;;8.02;100.00;100294.47;5019379;28;20506;-48
2021/11/14 03:47:32;;;;;;;0.30;0.20;;;;;;;7.96;100.00;100314.00;5023218;28;20449;-49
2021/11/14 03:49:58;;;;;;;0.30;0.20;;;;;;;8.01;100.00;100306.84;5026445;28;20477;-48
2021/11/14 03:52:25;;;;;;;0.30;0.20;;;;;;;7.90;100.00;100310.56;5022647;28;20461;-48
2021/11/14 03:54:51;;;;;;;0.30;0.30;;;;;;;7.98;100.00;100312.19;5019521;28;20497;-48
2021/11/14 03:57:26;;;;;;;0.30;0.20;;;;;;;7.97;100.00;100315.75;5021644;28;20485;-48
2021/11/14 03:59:53;;;;;;;0.30;0.20;;;;;;;7.99;100.00;100318.34;5026027;28;20473;-48
2021/11/14 04:02:19;;;;;;;0.30;0.20;;;;;;;7.95;100.00;100319.31;5027864;28;20945;-48
2021/11/14 04:04:47;;;;;;;0.30;0.20;;;;;;;7.92;100.00;100319.34;5020796;28;20873;-48
2021/11/14 04:07:14;;;;;;;0.30;0.20;;;;;;;8.09;100.00;100321.72;5024185;28;20487;-48
2021/11/14 04:12:12;;;;;;;1.43;1.43;;;;;;;8.01;100.00;100319.19;4990964;28;20516;-52
2021/11/14 04:14:39;;;;;;;0.30;0.20;;;;;;;8.11;100.00;100325.22;4992677;28;20531;-54
2021/11/14 04:17:06;;;;;;;0.30;0.20;;;;;;;8.16;100.00;100326.88;4993078;28;20545;-51
2021/11/14 04:19:33;;;;;;;0.30;0.20;;;;;;;8.07;100.00;100331.44;4993052;28;20531;-52
2021/11/14 04:22:00;;;;;;;0.30;0.20;;;;;;;8.03;100.00;100336.78;5011187;28;20443;-51
2021/11/14 04:24:26;;;;;;;3.93;1.27;;;;;;;8.16;100.00;100333.94;5012562;28;20491;-53
2021/11/14 04:26:53;;;;;;;0.30;0.20;;;;;;;8.29;100.00;100335.47;5012193;28;20480;-52
2021/11/14 04:29:19;;;;;;;0.30;0.20;;;;;;;8.26;100.00;100340.81;5001364;28;20503;-52
2021/11/14 04:31:46;;;;;;;0.30;0.20;;;;;;;8.36;100.00;100342.44;5011780;28;20471;-52
2021/11/14 04:34:13;;;;;;;0.30;0.20;;;;;;;8.48;100.00;100341.31;5000210;28;20456;-50
2021/11/14 04:36:39;;;;;;;0.40;0.40;;;;;;;8.69;100.00;100346.19;5012440;28;20480;-51
2021/11/14 04:39:06;;;;;;;0.30;0.20;;;;;;;8.72;100.00;100345.25;5012124;28;20455;-50
2021/11/14 04:41:33;;;;;;;0.30;0.20;;;;;;;8.69;100.00;100355.94;4999056;28;20474;-50
2021/11/14 04:44:00;;;;;;;0.30;0.20;;;;;;;8.62;100.00;100347.22;5012214;28;20510;-51
2021/11/14 04:46:27;;;;;;;0.30;0.20;;;;;;;8.68;100.00;100362.13;5014098;28;20427;-50
2021/11/14 04:48:53;;;;;;;0.30;0.20;;;;;;;8.75;100.00;100355.78;5016046;28;20550;-50
2021/11/14 04:51:20;;;;;;;0.30;0.20;;;;;;;8.70;100.00;100355.03;5002615;28;20620;-50
2021/11/14 04:53:47;;;;;;;1.10;1.10;;;;;;;8.64;100.00;100360.44;5016124;28;20456;-50
2021/11/14 04:56:14;;;;;;;0.30;0.20;;;;;;;8.68;100.00;100351.53;5015941;28;20452;-51
2021/11/14 04:58:41;;;;;;;0.30;0.20;;;;;;;8.73;100.00;100357.59;5015649;28;20511;-51
2021/11/14 05:01:08;;;;;;;0.30;0.20;;;;;;;8.49;100.00;100362.47;4999973;28;20816;-51
2021/11/14 05:03:35;;;;;;;2.87;1.90;;;;;;;8.74;100.00;100357.56;5004967;28;20453;-50
2021/11/14 05:06:02;;;;;;;0.30;0.20;;;;;;;8.71;100.00;100359.41;5002151;28;20432;-50
2021/11/14 05:08:29;;;;;;;2.40;1.13;;;;;;;8.44;100.00;100355.50;5015912;28;20456;-51
2021/11/14 05:10:55;;;;;;;3.20;2.33;;;;;;;8.50;100.00;100355.41;5024693;28;20613;-50
2021/11/14 05:13:22;;;;;;;0.30;0.20;;;;;;;8.60;100.00;100360.50;5035959;28;20451;-51
2021/11/14 05:15:49;;;;;;;0.30;0.20;;;;;;;8.60;100.00;100365.78;5022227;28;20466;-51
2021/11/14 05:18:16;;;;;;;0.70;0.70;;;;;;;8.82;100.00;100360.94;5035502;28;20534;-52
2021/11/14 05:20:45;;;;;;;1.00;0.70;;;;;;;8.71;100.00;100372.66;5035552;28;20828;-51
2021/11/14 05:23:15;;;;;;;0.30;0.20;;;;;;;8.75;100.00;100367.25;5035539;28;20418;-50
2021/11/14 05:25:43;;;;;;;0.30;0.20;;;;;;;8.39;100.00;100375.94;5035201;28;20529;-51
2021/11/14 05:28:11;;;;;;;0.83;0.83;;;;;;;8.48;100.00;100383.69;5035175;28;20522;-51
2021/11/14 05:30:38;;;;;;;0.40;0.40;;;;;;;8.51;100.00;100384.53;5035072;28;20478;-52
2021/11/14 05:33:05;;;;;;;0.30;0.20;;;;;;;8.39;100.00;100379.44;5023972;28;20464;-51
2021/11/14 05:35:31;;;;;;;0.30;0.20;;;;;;;8.43;100.00;100385.56;5033243;28;20965;-51
2021/11/14 05:37:58;;;;;;;0.30;0.20;;;;;;;8.25;100.00;100389.38;5034616;28;21061;-52
2021/11/14 05:40:25;;;;;;;0.57;0.57;;;;;;;8.17;100.00;100394.81;5021622;28;20450;-51
2021/11/14 05:42:51;;;;;;;0.30;0.20;;;;;;;8.19;100.00;100393.00;5034847;28;20448;-51
2021/11/14 05:45:18;;;;;;;1.47;1.47;;;;;;;8.16;100.00;100394.81;5021798;28;20542;-51
2021/11/14 05:47:45;;;;;;;0.30;0.20;;;;;;;8.21;100.00;100398.25;5035100;28;20447;-50
2021/11/14 05:50:12;;;;;;;0.30;0.20;;;;;;;8.23;100.00;100405.31;5028915;28;21005;-51
2021/11/14 05:52:38;;;;;;;0.30;0.20;;;;;;;8.30;100.00;100403.41;5027079;28;20491;-50
2021/11/14 05:55:06;;;;;;;9.80;1.53;;;;;;;8.33;100.00;100401.56;5028651;28;20958;-50
2021/11/14 05:58:09;;;;;;;0.30;0.20;;;;;;;8.27;100.00;100407.00;5026722;28;20448;-51
2021/11/14 06:00:35;;;;;;;0.30;0.20;;;;;;;8.22;100.00;100410.59;5013700;28;20484;-51
2021/11/14 06:03:54;;;;;;;0.30;0.20;;;;;;;8.26;100.00;100414.97;5018851;28;20530;-51
2021/11/14 06:05:52;;;;;;;0.30;0.20;;;;;;;8.21;100.00;100408.84;5015457;28;20460;-51
2021/11/14 06:08:22;;;;;;;0.30;0.20;;;;;;;8.20;100.00;100418.56;5034429;28;20479;-51
2021/11/14 06:10:52;;;;;;;0.30;0.20;;;;;;;8.16;100.00;100421.31;5033986;28;20476;-51
2021/11/14 06:13:25;;;;;;;0.30;0.20;;;;;;;8.11;100.00;100428.47;5034375;28;20535;-51
2021/11/14 06:15:52;;;;;;;0.30;0.20;;;;;;;8.13;100.00;100431.97;5033777;28;20873;-51
2021/11/14 06:18:20;;;;;;;0.30;0.20;;;;;;;8.12;100.00;100439.03;5034819;28;20476;-50
2021/11/14 06:20:47;;;;;;;0.30;0.20;;;;;;;8.10;100.00;100445.25;5016789;28;20541;-51
2021/11/14 06:23:15;;;;;;;0.30;0.20;;;;;;;8.04;100.00;100448.84;5034482;28;20511;-51
2021/11/14 06:25:41;;;;;;;0.30;0.20;;;;;;;8.00;100.00;100448.03;5033636;28;20506;-51
2021/11/14 06:28:09;;;;;;;0.30;0.20;;;;;;;8.03;100.00;100455.03;5023613;28;20453;-51
2021/11/14 06:30:37;;;;;;;0.30;0.20;;;;;;;8.07;100.00;100455.84;5029252;28;21039;-52
2021/11/14 06:33:05;;;;;;;0.30;0.20;;;;;;;7.98;100.00;100452.47;5032351;28;20905;-51
2021/11/14 06:35:32;;;;;;;0.30;0.20;;;;;;;7.97;100.00;100456.03;5028182;28;20456;-52
2021/11/14 06:38:00;;;;;;;0.30;0.20;;;;;;;7.95;100.00;100460.47;5022593;28;20452;-51
2021/11/14 06:40:27;;;;;;;0.30;0.20;;;;;;;7.96;100.00;100469.28;5031280;28;20838;-52
2021/11/14 06:42:53;;;;;;;0.30;0.20;;;;;;;7.91;100.00;100463.16;5033080;28;20815;-52
2021/11/14 06:45:20;;;;;;;1.83;1.73;;;;;;;7.94;100.00;100468.41;5027814;28;20480;-52
2021/11/14 06:47:47;;;;;;;0.30;0.20;;;;;;;7.97;100.00;100473.69;5030211;28;20961;-52
2021/11/14 06:50:14;;;;;;;0.30;0.20;;;;;;;7.96;100.00;100482.53;5029003;28;20482;-51
2021/11/14 06:52:42;;;;;;;0.30;0.20;;;;;;;7.97;100.00;100485.13;5032541;28;20898;-51
2021/11/14 06:55:11;;;;;;;0.30;0.20;;;;;;;7.94;100.00;100494.88;5030305;28;20518;-52
2021/11/14 06:57:38;;;;;;;0.30;0.20;;;;;;;7.98;100.00;100504.53;5033045;28;20455;-51
2021/11/14 07:00:11;;;;;;;0.30;0.20;;;;;;;8.01;100.00;100502.72;5032675;28;20476;-51
2021/11/14 07:02:38;;;;;;;0.30;0.30;;;;;;;7.99;100.00;100501.00;5024393;28;20440;-52
2021/11/14 07:05:06;;;;;;;0.30;0.20;;;;;;;8.09;100.00;100512.34;5023983;28;20453;-52
2021/11/14 07:07:33;;;;;;;0.30;0.20;;;;;;;8.02;100.00;100515.06;5030907;28;20463;-51
2021/11/14 07:09:59;;;;;;;0.30;0.20;;;;;;;8.11;100.00;100514.06;5032691;28;20463;-52
2021/11/14 07:12:26;;;;;;;0.30;0.20;;;;;;;8.09;100.00;100521.16;5032405;28;20522;-52
2021/11/14 07:14:53;;;;;;;0.30;0.20;;;;;;;8.01;100.00;100520.38;5032781;28;20518;-52
2021/11/14 07:17:22;;;;;;;0.30;0.30;;;;;;;8.06;100.00;100522.94;5030080;28;20533;-53
2021/11/14 07:19:49;;;;;;;1.40;1.40;;;;;;;8.04;100.00;100528.25;5016040;28;20503;-52
2021/11/14 07:22:20;;;;;;;0.30;0.20;;;;;;;8.09;100.00;100525.56;5029120;28;20440;-52
2021/11/14 07:24:46;;;;;;;0.30;0.20;;;;;;;8.11;100.00;100527.28;5023704;28;20561;-51
2021/11/14 07:27:13;;;;;;;0.30;0.20;;;;;;;8.30;100.00;100533.16;5031436;28;20822;-51
2021/11/14 07:29:40;;;;;;;0.30;0.30;;;;;;;8.25;100.00;100530.59;5028708;28;20510;-51
2021/11/14 07:32:08;;;;;;;1.63;1.60;;;;;;;8.14;100.00;100532.53;5027099;28;20488;-52
2021/11/14 07:34:35;;;;;;;0.30;0.20;;;;;;;8.12;100.00;100536.97;5019488;28;20459;-52
2021/11/14 07:37:01;;;;;;;0.30;0.20;;;;;;;8.19;100.00;100540.41;5031342;28;20479;-51
2021/11/14 07:39:33;;;;;;;0.30;0.20;;;;;;;8.30;100.00;100541.13;5025136;28;20452;-52
2021/11/14 07:41:59;;;;;;;0.30;0.20;;;;;;;8.31;100.00;100545.50;5025606;28;20469;-52
2021/11/14 07:44:26;;;;;;;1.07;1.07;;;;;;;8.30;100.00;100538.47;5030345;28;20539;-52
2021/11/14 07:46:53;;;;;;;0.30;0.20;;;;;;;8.34;100.00;100542.84;5032162;28;20885;-52
2021/11/14 07:49:20;;;;;;;0.30;0.20;;;;;;;8.33;100.00;100544.59;5032001;28;20834;-51
2021/11/14 07:51:46;;;;;;;0.30;0.20;;;;;;;8.39;100.00;100554.25;5022930;28;20572;-52
2021/11/14 07:54:13;;;;;;;0.30;0.20;;;;;;;8.52;100.00;100562.91;5032297;28;20455;-52
2021/11/14 07:56:40;;;;;;;0.30;0.20;;;;;;;8.46;100.00;100561.19;5021143;28;20480;-52
2021/11/14 07:59:06;;;;;;;1.23;1.13;;;;;;;8.61;100.00;100565.38;5025898;28;20936;-53
2021/11/14 08:01:33;;;;;;;0.50;0.50;;;;;;;8.53;100.00;100564.66;5025088;28;20522;-51
2021/11/14 08:04:00;;;;;;;0.30;0.20;;;;;;;8.66;100.00;100565.31;5023971;28;20460;-51
2021/11/14 08:06:27;;;;;;;0.30;0.20;;;;;;;8.46;100.00;100561.19;5031844;28;20575;-52
2021/11/14 08:08:53;;;;;;;0.30;0.20;;;;;;;8.70;100.00;100562.59;5031616;28;20628;-52
2021/11/14 08:11:20;;;;;;;0.30;0.20;;;;;;;8.59;100.00;100561.88;5028181;28;20523;-52
2021/11/14 08:13:46;;;;;;;0.30;0.20;;;;;;;8.60;100.00;100568.94;5013150;28;20487;-52
2021/11/14 08:16:13;;;;;;;0.60;0.60;;;;;;;8.63;100.00;100565.34;5032453;28;20448;-52
2021/11/14 08:18:40;;;;;;;0.30;0.20;;;;;;;8.63;100.00;100573.28;5026349;28;20452;-52
2021/11/14 08:21:06;;;;;;;0.63;0.63;;;;;;;8.59;100.00;100569.81;5026772;28;20476;-52
2021/11/14 08:23:33;;;;;;;0.30;0.20;;;;;;;8.63;100.00;100570.66;5030525;28;20875;-52
2021/11/14 08:26:00;;;;;;;0.70;0.70;;;;;;;8.58;100.00;100576.03;5026488;28;20866;-52
2021/11/14 08:28:26;;;;;;;0.30;0.20;;;;;;;8.63;100.00;100583.91;5030599;28;20458;-50
2021/11/14 08:30:53;;;;;;;0.30;0.20;;;;;;;8.64;100.00;100585.69;5028767;28;20476;-52
2021/11/14 08:33:36;;;;;;;0.30;0.20;;;;;;;8.56;100.00;100591.97;5019900;28;20941;-52
2021/11/14 08:36:03;;;;;;;0.30;0.20;;;;;;;8.57;100.00;100590.19;5024804;28;20940;-52
2021/11/14 08:38:30;;;;;;;0.30;0.30;;;;;;;8.51;100.00;100588.50;5031864;28;20893;-52
2021/11/14 08:40:57;;;;;;;0.30;0.20;;;;;;;8.59;100.00;100594.56;5032161;28;20865;-52
2021/11/14 08:43:24;;;;;;;0.30;0.20;;;;;;;8.57;100.00;100603.44;5032015;28;20444;-52
2021/11/14 08:45:51;;;;;;;0.40;0.40;;;;;;;8.60;100.00;100598.94;5032341;28;20451;-52
2021/11/14 08:48:22;;;;;;;0.30;0.20;;;;;;;8.67;100.00;100596.22;5033038;28;20450;-51
2021/11/14 08:50:49;;;;;;;0.30;0.20;;;;;;;8.68;100.00;100600.63;5033081;28;20471;-52
2021/11/14 08:53:16;;;;;;;0.30;0.20;;;;;;;8.70;100.00;100609.41;5032065;28;20491;-51
2021/11/14 08:55:43;;;;;;;0.30;0.27;;;;;;;8.73;100.00;100612.00;5032320;28;20945;-51
2021/11/14 08:58:29;;;;;;;0.30;0.20;;;;;;;8.84;100.00;100620.66;5032163;28;20539;-52
2021/11/14 09:00:58;;;;;;;0.30;0.20;;;;;;;8.70;100.00;100620.88;5031143;28;20920;-52
2021/11/14 09:03:25;;;;;;;0.30;0.20;;;;;;;8.79;100.00;100626.06;5019594;28;20550;-53
2021/11/14 09:05:52;;;;;;;9.67;1.37;;;;;;;9.07;100.00;100630.91;5031904;28;20448;-52
2021/11/14 09:08:19;;;;;;;0.30;0.20;;;;;;;8.99;100.00;100631.03;5031636;28;20495;-52
2021/11/14 09:10:46;;;;;;;0.60;0.60;;;;;;;8.97;100.00;100639.91;5031763;28;20511;-53
2021/11/14 09:13:15;;;;;;;0.30;0.20;;;;;;;9.10;100.00;100637.03;5031862;28;20502;-52
2021/11/14 09:15:43;;;;;;;0.30;0.20;;;;;;;9.12;100.00;100645.81;5031707;28;20456;-52
2021/11/14 09:18:16;;;;;;;0.40;0.40;;;;;;;8.98;100.00;100637.22;5031840;28;20447;-52
2021/11/14 09:20:44;;;;;;;0.97;0.97;;;;;;;9.04;100.00;100642.41;5031391;28;20518;-52
2021/11/14 09:23:11;;;;;;;0.30;0.20;;;;;;;9.10;100.00;100647.63;5032035;28;20448;-52
2021/11/14 09:25:42;;;;;;;0.30;0.30;;;;;;;9.17;100.00;100653.69;5031781;28;20447;-52
2021/11/14 09:28:10;;;;;;;0.40;0.30;;;;;;;9.37;100.00;100645.41;5021068;28;20816;-52
2021/11/14 09:30:37;;;;;;;0.30;0.20;;;;;;;9.32;100.00;100652.56;5029185;28;21103;-53
2021/11/14 09:33:05;;;;;;;0.30;0.20;;;;;;;9.42;100.00;100654.16;5021356;28;20488;-52
2021/11/14 09:35:32;;;;;;;0.30;0.27;;;;;;;9.34;100.00;100650.78;5033268;28;20447;-52
2021/11/14 09:37:59;;;;;;;0.30;0.20;;;;;;;9.59;100.00;100649.38;5035324;28;20501;-52
2021/11/14 09:40:26;;;;;;;0.30;0.20;;;;;;;9.33;100.00;100662.28;5034970;28;20467;-51
2021/11/14 09:42:53;;;;;;;0.40;0.40;;;;;;;9.34;100.00;100661.38;5017708;28;20513;-52
2021/11/14 09:45:19;;;;;;;0.93;0.93;;;;;;;9.27;100.00;100665.91;5035137;28;20451;-52
2021/11/14 09:47:46;;;;;;;0.30;0.20;;;;;;;9.41;100.00;100673.63;5035126;28;20478;-52
2021/11/14 09:50:13;;;;;;;0.30;0.20;;;;;;;9.37;100.00;100671.94;5035004;28;20533;-51
2021/11/14 09:52:40;;;;;;;1.00;0.90;;;;;;;9.29;100.00;100674.69;5035065;28;20558;-52
2021/11/14 09:55:09;;;;;;;0.30;0.20;;;;;;;9.35;100.00;100674.63;5035040;28;20466;-52
2021/11/14 09:57:39;;;;;;;0.30;0.20;;;;;;;9.32;100.00;100684.38;5034904;28;20451;-52
2021/11/14 10:00:08;;;;;;;0.30;0.20;;;;;;;9.60;100.00;100675.06;5015057;28;20505;-53
2021/11/14 10:02:37;;;;;;;1.00;0.47;;;;;;;9.70;100.00;100673.09;5018920;28;20500;-53
2021/11/14 10:05:07;;;;;;;0.30;0.20;;;;;;;9.54;100.00;100672.50;5034973;28;20498;-52
2021/11/14 10:07:38;;;;;;;0.30;0.20;;;;;;;9.49;100.00;100677.03;5034762;28;20447;-52
2021/11/14 10:10:08;;;;;;;0.40;0.37;;;;;;;9.53;100.00;100677.84;5035069;28;21046;-49
2021/11/14 10:12:38;;;;;;;0.80;0.80;;;;;;;9.56;100.00;100675.13;5034260;28;20495;-48
2021/11/14 10:15:05;;;;;;;0.30;0.20;;;;;;;9.48;100.00;100680.59;5034168;28;20455;-48
2021/11/14 10:17:32;;;;;;;0.30;0.20;;;;;;;9.45;100.00;100672.66;5034241;28;20595;-48
2021/11/14 10:20:34;;;;;;;0.30;0.20;;;;;;;9.45;100.00;100677.97;5034028;28;20948;-48
2021/11/14 10:23:05;;;;;;;0.30;0.20;;;;;;;9.53;100.00;100680.50;4972938;28;20460;-48
2021/11/14 10:25:33;;;;;;;0.83;0.80;;;;;;;9.48;100.00;100678.81;5029617;28;20472;-48
2021/11/14 10:28:04;;;;;;;0.30;0.20;;;;;;;9.50;100.00;100677.00;5024345;28;20961;-48
2021/11/14 10:30:34;;;;;;;0.30;0.20;;;;;;;9.68;100.00;100681.09;5030831;28;20841;-48
2021/11/14 10:33:05;;;;;;;0.97;0.80;;;;;;;9.72;100.00;100687.19;5023202;28;20520;-48
2021/11/14 10:35:32;;;;;;;0.30;0.20;;;;;;;9.79;100.00;100684.41;5032058;28;20452;-48
2021/11/14 10:38:02;;;;;;;0.30;0.20;;;;;;;9.76;100.00;100680.94;5033808;28;20452;-48
2021/11/14 10:40:34;;;;;;;7.13;1.43;;;;;;;9.77;100.00;100686.22;5033799;28;20995;-49
2021/11/14 10:43:02;;;;;;;0.30;0.20;;;;;;;9.83;100.00;100693.19;5034013;28;20498;-48
2021/11/14 10:45:31;;;;;;;0.50;0.50;;;;;;;10.01;100.00;100690.19;5033832;28;20452;-49
2021/11/14 10:48:01;;;;;;;0.37;0.30;;;;;;;9.68;100.00;100689.03;5033927;28;20969;-49
2021/11/14 10:50:32;;;;;;;0.30;0.20;;;;;;;9.83;100.00;100687.88;5033522;28;20467;-49
2021/11/14 10:53:01;;;;;;;0.30;0.20;;;;;;;10.06;100.00;100682.13;5033764;28;21000;-49
2021/11/14 10:55:36;;;;;;;0.30;0.20;;;;;;;9.98;100.00;100682.25;5033882;28;20510;-48
2021/11/14 10:58:03;;;;;;;0.30;0.20;;;;;;;10.28;100.00;100678.16;5016067;28;20478;-49
2021/11/14 11:00:31;;;;;;;0.77;0.77;;;;;;;10.27;100.00;100678.16;5033343;28;20559;-49
2021/11/14 11:03:01;;;;;;;0.30;0.20;;;;;;;10.21;100.00;100679.19;5020147;28;20535;-49
2021/11/14 11:05:29;;;;;;;0.30;0.20;;;;;;;10.30;100.00;100683.44;5033778;28;20483;-48
2021/11/14 11:08:08;;;;;;;0.30;0.20;;;;;;;10.56;100.00;100677.56;5033468;28;20448;-48
2021/11/14 11:10:43;;;;;;;0.30;0.20;;;;;;;10.41;100.00;100688.50;5033221;28;20976;-49
2021/11/14 11:13:13;;;;;;;0.90;0.90;;;;;;;10.42;100.00;100685.84;5033493;28;20495;-48
2021/11/14 11:15:49;;;;;;;0.30;0.20;;;;;;;10.41;100.00;100692.03;5033745;28;20451;-49
2021/11/14 11:18:18;;;;;;;0.30;0.20;;;;;;;9.94;100.00;100682.38;5033557;28;20462;-48
2021/11/14 11:20:50;;;;;;;0.30;0.20;;;;;;;10.09;100.00;100679.41;5031797;28;20541;-48
2021/11/14 11:23:18;;;;;;;0.30;0.20;;;;;;;10.10;100.00;100686.47;5023800;28;20444;-48
2021/11/14 11:25:48;;;;;;;0.30;0.20;;;;;;;10.29;100.00;100687.88;5022848;28;20448;-48
2021/11/14 11:28:23;;;;;;;0.30;0.20;;;;;;;10.64;100.00;100686.22;5023485;28;20487;-48
2021/11/14 11:31:03;;;;;;;0.30;0.20;;;;;;;10.49;100.00;100695.41;5019411;28;20889;-48
2021/11/14 11:33:34;;;;;;;0.30;0.20;;;;;;;10.45;100.00;100699.06;5019334;28;20942;-48